createdAt,value
2019-01-03T00:00:28.441Z,6.90
2019-01-03T00:03:11.295Z,4.80
2019-01-03T00:05:57.186Z,2.20
2019-01-03T00:08:33.881Z,9.00
2019-01-03T00:11:11.554Z,5.13
2019-01-03T00:13:42.370Z,6.23
2019-01-03T00:16:19.766Z,2.60
2019-01-03T00:18:50.643Z,2.70
2019-01-03T00:21:27.968Z,4.07
2019-01-03T00:24:13.878Z,3.43
2019-01-03T00:26:44.917Z,6.47
2019-01-03T00:29:32.146Z,5.13
2019-01-03T00:32:03.055Z,3.60
2019-01-03T00:34:34.701Z,6.33
2019-01-03T00:37:11.018Z,3.97
2019-01-03T00:39:44.904Z,3.20
2019-01-03T00:42:18.679Z,4.90
2019-01-03T00:45:06.784Z,1.83
2019-01-03T00:47:42.762Z,1.10
2019-01-03T00:50:29.794Z,5.23
2019-01-03T00:53:16.810Z,1.87
2019-01-03T00:56:05.880Z,3.80
2019-01-03T00:58:36.872Z,4.93
2019-01-03T01:01:25.696Z,3.20
2019-01-03T01:03:59.579Z,4.03
2019-01-03T01:06:46.372Z,6.53
2019-01-03T01:09:20.871Z,4.40
2019-01-03T01:12:07.990Z,5.53
2019-01-03T01:14:41.406Z,2.77
2019-01-03T01:17:18.125Z,7.73
2019-01-03T01:19:54.621Z,3.93
2019-01-03T01:22:34.927Z,8.63
2019-01-03T01:25:15.089Z,12.20
2019-01-03T01:28:02.695Z,4.53
2019-01-03T01:30:42.524Z,3.80
2019-01-03T01:33:29.127Z,6.23
2019-01-03T01:36:16.160Z,7.83
2019-01-03T01:38:49.771Z,9.10
2019-01-03T01:41:20.208Z,4.00
2019-01-03T01:44:08.974Z,10.40
2019-01-03T01:46:46.105Z,5.27
2019-01-03T01:49:34.893Z,11.53
2019-01-03T01:52:05.774Z,8.00
2019-01-03T01:54:51.098Z,7.23
2019-01-03T01:57:21.771Z,10.17
2019-01-03T02:00:08.650Z,6.03
2019-01-03T02:02:45.943Z,4.20
2019-01-03T02:05:22.423Z,10.53
2019-01-03T02:07:53.192Z,8.73
2019-01-03T02:10:39.810Z,7.33
2019-01-03T02:13:20.051Z,11.70
2019-01-03T02:15:59.891Z,8.53
2019-01-03T02:18:32.435Z,6.43
2019-01-03T02:21:06.060Z,6.13
2019-01-03T02:23:42.692Z,6.40
2019-01-03T02:26:13.496Z,7.10
2019-01-03T02:29:00.092Z,7.63
2019-01-03T02:31:30.937Z,10.03
2019-01-03T02:34:04.418Z,9.73
2019-01-03T02:36:38.483Z,10.60
2019-01-03T02:39:17.638Z,8.43
2019-01-03T02:41:49.828Z,5.47
2019-01-03T02:44:26.611Z,8.53
2019-01-03T02:46:59.950Z,8.33
2019-01-03T02:49:30.821Z,10.30
2019-01-03T02:52:17.978Z,9.03
2019-01-03T02:55:05.493Z,8.77
2019-01-03T02:57:52.171Z,5.27
2019-01-03T03:00:23.473Z,5.80
2019-01-03T03:02:57.951Z,6.33
2019-01-03T03:05:35.326Z,4.53
2019-01-03T03:08:12.638Z,7.93
2019-01-03T03:10:46.821Z,11.97
2019-01-03T03:13:23.188Z,8.20
2019-01-03T03:16:09.555Z,6.43
2019-01-03T03:18:43.609Z,7.90
2019-01-03T03:21:23.301Z,7.97
2019-01-03T03:24:06.693Z,7.97
2019-01-03T03:26:46.685Z,6.87
2019-01-03T03:29:24.071Z,9.20
2019-01-03T03:31:58.042Z,6.57
2019-01-03T03:34:44.915Z,9.60
2019-01-03T03:37:28.938Z,4.40
2019-01-03T03:40:17.851Z,12.93
2019-01-03T03:43:05.477Z,6.67
2019-01-03T03:45:48.195Z,7.80
2019-01-03T03:48:35.642Z,7.53
2019-01-03T03:51:12.633Z,5.17
2019-01-03T03:53:53.211Z,9.17
2019-01-03T03:56:25.084Z,7.50
2019-01-03T03:58:55.965Z,27.97
2019-01-03T04:01:27.055Z,15.97
2019-01-03T04:04:15.040Z,8.17
2019-01-03T04:07:01.955Z,8.63
2019-01-03T04:09:48.909Z,11.40
2019-01-03T04:12:32.002Z,10.23
2019-01-03T04:15:09.080Z,12.53
2019-01-03T04:17:40.370Z,10.23
2019-01-03T04:20:12.089Z,7.30
2019-01-03T04:22:53.002Z,14.93
2019-01-03T04:25:29.953Z,8.47
2019-01-03T04:28:02.475Z,10.83
2019-01-03T04:30:51.621Z,11.03
2019-01-03T04:33:22.933Z,8.60
2019-01-03T04:36:00.394Z,11.67
2019-01-03T04:38:47.912Z,12.73
2019-01-03T04:41:35.669Z,5.63
2019-01-03T04:44:25.095Z,10.67
2019-01-03T04:47:02.401Z,10.00
2019-01-03T04:49:51.485Z,11.87
2019-01-03T04:52:28.598Z,8.67
2019-01-03T04:55:15.572Z,17.30
2019-01-03T04:57:52.634Z,10.80
2019-01-03T05:00:27.118Z,8.77
2019-01-03T05:03:13.767Z,12.37
2019-01-03T05:05:59.426Z,6.80
2019-01-03T05:08:33.047Z,13.67
2019-01-03T05:11:04.192Z,10.53
2019-01-03T05:13:35.131Z,8.53
2019-01-03T05:16:15.080Z,12.97
2019-01-03T05:19:01.595Z,6.70
2019-01-03T05:21:44.267Z,10.10
2019-01-03T05:24:15.619Z,12.10
2019-01-03T05:27:02.364Z,11.07
2019-01-03T05:29:33.864Z,7.93
2019-01-03T05:32:20.862Z,11.13
2019-01-03T05:35:06.663Z,13.97
2019-01-03T05:37:55.342Z,13.70
2019-01-03T05:40:28.295Z,17.63
2019-01-03T05:43:04.861Z,15.73
2019-01-03T05:45:43.965Z,9.63
2019-01-03T05:48:23.960Z,12.80
2019-01-03T05:51:10.924Z,9.27
2019-01-03T05:53:44.617Z,11.03
2019-01-03T05:56:20.899Z,9.10
2019-01-03T05:58:57.156Z,11.00
2019-01-03T06:01:39.580Z,19.60
2019-01-03T06:04:10.624Z,14.23
2019-01-03T06:06:53.149Z,13.83
2019-01-03T06:09:30.450Z,20.20
2019-01-03T06:12:09.711Z,12.77
2019-01-03T06:14:57.083Z,15.23
2019-01-03T06:17:34.209Z,14.40
2019-01-03T06:20:14.140Z,18.63
2019-01-03T06:22:47.988Z,18.67
2019-01-03T06:25:34.730Z,22.23
2019-01-03T06:28:05.223Z,15.93
2019-01-03T06:30:54.075Z,15.87
2019-01-03T06:33:27.804Z,23.33
2019-01-03T06:36:13.650Z,21.10
2019-01-03T06:38:53.221Z,19.80
2019-01-03T06:41:26.705Z,33.87
2019-01-03T06:44:14.672Z,30.70
2019-01-03T06:46:45.647Z,25.33
2019-01-03T06:49:16.217Z,33.37
2019-01-03T06:51:46.846Z,23.43
2019-01-03T06:54:35.913Z,22.13
2019-01-03T06:57:06.598Z,33.10
2019-01-03T06:59:53.660Z,31.23
2019-01-03T07:02:30.534Z,26.47
2019-01-03T07:05:18.397Z,28.97
2019-01-03T07:07:49.978Z,29.80
2019-01-03T07:10:26.699Z,31.47
2019-01-03T07:12:57.291Z,32.47
2019-01-03T07:15:45.720Z,32.17
2019-01-03T07:18:32.489Z,32.47
2019-01-03T07:21:09.191Z,24.23
2019-01-03T07:23:39.544Z,30.60
2019-01-03T07:26:26.262Z,29.57
2019-01-03T07:28:57.557Z,33.80
2019-01-03T07:31:44.662Z,32.37
2019-01-03T07:34:26.723Z,33.73
2019-01-03T07:36:58.177Z,28.13
2019-01-03T07:39:29.385Z,29.27
2019-01-03T07:42:00.298Z,34.63
2019-01-03T07:44:31.326Z,40.10
2019-01-03T07:47:08.348Z,38.23
2019-01-03T07:49:45.249Z,31.70
2019-01-03T07:52:24.923Z,29.63
2019-01-03T07:54:58.913Z,31.43
2019-01-03T07:57:39.222Z,33.20
2019-01-03T08:00:13.887Z,34.83
2019-01-03T08:02:51.698Z,32.87
2019-01-03T08:05:28.364Z,29.53
2019-01-03T08:08:17.071Z,28.33
2019-01-03T08:11:06.462Z,40.20
2019-01-03T08:13:46.361Z,39.40
2019-01-03T08:16:17.891Z,29.77
2019-01-03T08:18:57.400Z,29.63
2019-01-03T08:21:28.055Z,25.97
2019-01-03T08:24:16.624Z,34.10
2019-01-03T08:26:50.304Z,32.07
2019-01-03T08:29:21.327Z,36.20
2019-01-03T08:31:58.275Z,27.20
2019-01-03T08:34:46.156Z,30.40
2019-01-03T08:37:17.400Z,27.30
2019-01-03T08:39:47.986Z,34.97
2019-01-03T08:42:34.598Z,28.20
2019-01-03T08:45:05.780Z,29.87
2019-01-03T08:47:45.116Z,21.23
2019-01-03T08:50:22.342Z,32.67
2019-01-03T08:52:56.465Z,26.60
2019-01-03T08:55:36.959Z,30.43
2019-01-03T08:58:11.155Z,22.67
2019-01-03T09:00:54.219Z,23.43
2019-01-03T09:03:25.473Z,25.13
2019-01-03T09:06:12.036Z,24.43
2019-01-03T09:08:51.979Z,28.00
2019-01-03T09:11:28.579Z,32.30
2019-01-03T09:13:59.834Z,31.73
2019-01-03T09:16:48.217Z,24.10
2019-01-03T09:19:18.768Z,30.93
2019-01-03T09:21:55.632Z,29.97
2019-01-03T09:24:38.389Z,26.97
2019-01-03T09:27:12.437Z,27.20
2019-01-03T09:29:45.967Z,27.63
2019-01-03T09:32:35.003Z,26.27
2019-01-03T09:35:14.710Z,23.70
2019-01-03T09:37:54.437Z,26.27
2019-01-03T09:40:25.181Z,29.17
2019-01-03T09:43:08.736Z,24.80
2019-01-03T09:45:44.076Z,22.70
2019-01-03T09:48:08.753Z,25.67
2019-01-03T09:50:38.397Z,18.57
2019-01-03T09:53:08.560Z,27.03
2019-01-03T09:55:38.458Z,23.00
2019-01-03T09:58:08.952Z,19.00
2019-01-03T10:00:38.008Z,21.60
2019-01-03T10:03:07.333Z,28.43
2019-01-03T10:05:37.006Z,21.30
2019-01-03T10:08:06.410Z,21.53
2019-01-03T10:10:35.674Z,27.03
2019-01-03T10:13:04.980Z,26.50
2019-01-03T10:15:35.026Z,23.63
2019-01-03T10:18:04.482Z,18.27
2019-01-03T10:20:33.779Z,25.63
2019-01-03T10:23:02.977Z,22.27
2019-01-03T10:25:31.973Z,26.67
2019-01-03T10:28:01.053Z,27.03
2019-01-03T10:30:29.805Z,26.60
2019-01-03T10:32:58.869Z,18.57
2019-01-03T10:35:27.909Z,21.93
2019-01-03T10:37:57.177Z,19.23
2019-01-03T10:40:26.122Z,19.33
2019-01-03T10:42:55.118Z,26.17
2019-01-03T10:45:24.369Z,21.57
2019-01-03T10:47:53.137Z,21.33
2019-01-03T10:50:22.956Z,25.03
2019-01-03T10:52:52.438Z,19.03
2019-01-03T10:55:21.496Z,21.03
2019-01-03T10:57:51.025Z,21.03
2019-01-03T11:00:19.851Z,21.67
2019-01-03T11:02:48.629Z,20.50
2019-01-03T11:05:17.529Z,24.00
2019-01-03T11:07:46.691Z,16.80
2019-01-03T11:10:15.818Z,18.47
2019-01-03T11:12:45.249Z,19.83
2019-01-03T11:15:14.253Z,22.77
2019-01-03T11:17:43.271Z,21.20
2019-01-03T11:20:12.556Z,22.93
2019-01-03T11:22:41.865Z,18.80
2019-01-03T11:25:10.759Z,21.83
2019-01-03T11:27:39.672Z,18.10
2019-01-03T11:30:10.439Z,20.00
2019-01-03T11:32:39.580Z,23.67
2019-01-03T11:35:08.753Z,23.67
2019-01-03T11:37:38.155Z,20.13
2019-01-03T11:40:07.975Z,24.70
2019-01-03T11:42:36.843Z,19.00
2019-01-03T11:45:06.368Z,13.70
2019-01-03T11:47:35.549Z,17.77
2019-01-03T11:50:05.937Z,18.00
2019-01-03T11:52:37.154Z,15.20
2019-01-03T11:55:06.609Z,13.70
2019-01-03T11:57:35.962Z,17.77
2019-01-03T12:00:08.034Z,15.03
2019-01-03T12:02:37.053Z,15.27
2019-01-03T12:05:07.799Z,14.27
2019-01-03T12:07:37.093Z,12.87
2019-01-03T12:10:06.650Z,12.27
2019-01-03T12:12:36.500Z,12.10
2019-01-03T12:15:08.182Z,10.20
2019-01-03T12:17:37.253Z,10.37
2019-01-03T12:20:06.955Z,10.30
2019-01-03T12:22:36.462Z,8.57
2019-01-03T12:25:05.710Z,9.30
2019-01-03T12:27:34.766Z,8.00
2019-01-03T12:30:04.341Z,12.13
2019-01-03T12:32:33.677Z,12.37
2019-01-03T12:35:02.627Z,9.67
2019-01-03T12:37:31.598Z,14.00
2019-01-03T12:40:01.193Z,9.20
2019-01-03T12:42:30.057Z,10.43
2019-01-03T12:44:59.238Z,10.10
2019-01-03T12:47:28.502Z,9.00
2019-01-03T12:49:58.068Z,9.93
2019-01-03T12:52:27.394Z,6.60
2019-01-03T12:54:56.231Z,9.60
2019-01-03T12:57:25.248Z,9.33
2019-01-03T12:59:55.084Z,7.63
2019-01-03T13:02:24.066Z,9.40
2019-01-03T13:04:52.977Z,9.87
2019-01-03T13:07:22.104Z,15.27
2019-01-03T13:09:51.087Z,11.00
2019-01-03T13:12:21.486Z,11.50
2019-01-03T13:14:50.824Z,8.00
2019-01-03T13:17:20.223Z,9.23
2019-01-03T13:19:49.065Z,8.60
2019-01-03T13:22:17.940Z,12.03
2019-01-03T13:24:47.603Z,9.07
2019-01-03T13:27:18.144Z,8.70
2019-01-03T13:29:47.727Z,10.43
2019-01-03T13:32:16.612Z,9.13
2019-01-03T13:34:45.541Z,10.50
2019-01-03T13:37:15.108Z,8.17
2019-01-03T13:39:43.906Z,11.03
2019-01-03T13:42:13.300Z,8.13
2019-01-03T13:44:42.569Z,9.10
2019-01-03T13:47:11.824Z,9.63
2019-01-03T13:49:41.138Z,8.30
2019-01-03T13:52:10.432Z,9.33
2019-01-03T13:54:39.456Z,7.33
2019-01-03T13:57:08.176Z,9.70
2019-01-03T13:59:37.522Z,10.43
2019-01-03T14:02:06.727Z,11.00
2019-01-03T14:04:36.241Z,11.53
2019-01-03T14:07:05.641Z,11.07
2019-01-03T14:09:35.236Z,9.77
2019-01-03T14:12:04.922Z,9.57
2019-01-03T14:14:34.740Z,8.90
2019-01-03T14:17:04.368Z,11.47
2019-01-03T14:19:34.502Z,9.97
2019-01-03T14:22:03.960Z,9.33
2019-01-03T14:24:33.335Z,14.40
2019-01-03T14:27:02.685Z,12.40
2019-01-03T14:29:31.795Z,8.93
2019-01-03T14:32:01.563Z,10.40
2019-01-03T14:34:30.709Z,10.63
2019-01-03T14:36:59.790Z,12.27
2019-01-03T14:39:28.909Z,11.87
2019-01-03T14:41:58.254Z,16.13
2019-01-03T14:44:27.192Z,10.77
2019-01-03T14:46:56.811Z,13.13
2019-01-03T14:49:26.706Z,14.10
2019-01-03T14:51:57.149Z,12.97
2019-01-03T14:54:26.717Z,11.10
2019-01-03T14:56:55.921Z,12.27
2019-01-03T14:59:24.933Z,14.57
2019-01-03T15:01:54.190Z,11.90
2019-01-03T15:04:23.286Z,10.97
2019-01-03T15:06:52.385Z,11.63
2019-01-03T15:09:22.107Z,12.40
2019-01-03T15:11:51.480Z,14.97
2019-01-03T15:14:21.043Z,14.97
2019-01-03T15:16:50.162Z,12.13
2019-01-03T15:19:19.549Z,12.30
2019-01-03T15:21:49.050Z,12.50
2019-01-03T15:24:18.126Z,7.83
2019-01-03T15:26:48.215Z,15.13
2019-01-03T15:29:17.529Z,12.33
2019-01-03T15:31:48.631Z,12.50
2019-01-03T15:34:18.262Z,11.93
2019-01-03T15:36:47.531Z,9.47
2019-01-03T15:39:16.625Z,9.87
2019-01-03T15:41:46.131Z,9.30
2019-01-03T15:44:15.580Z,12.80
2019-01-03T15:46:44.525Z,10.77
2019-01-03T15:49:14.562Z,13.33
2019-01-03T15:51:43.982Z,9.60
2019-01-03T15:54:13.404Z,10.53
2019-01-03T15:56:42.557Z,13.63
2019-01-03T15:59:12.027Z,13.50
2019-01-03T16:01:41.350Z,10.00
2019-01-03T16:04:10.519Z,11.33
2019-01-03T16:06:40.359Z,9.23
2019-01-03T16:09:09.929Z,11.63
2019-01-03T16:11:38.900Z,9.83
2019-01-03T16:14:08.181Z,11.13
2019-01-03T16:16:37.265Z,11.93
2019-01-03T16:19:06.635Z,9.97
2019-01-03T16:21:36.021Z,11.20
2019-01-03T16:24:05.047Z,11.60
2019-01-03T16:26:34.372Z,9.77
2019-01-03T16:29:04.276Z,9.90
2019-01-03T16:31:33.502Z,9.10
2019-01-03T16:34:02.622Z,10.43
2019-01-03T16:36:32.141Z,9.03
2019-01-03T16:39:01.149Z,9.80
2019-01-03T16:41:31.175Z,11.30
2019-01-03T16:44:00.588Z,13.70
2019-01-03T16:46:30.247Z,9.40
2019-01-03T16:49:00.271Z,13.33
2019-01-03T16:51:30.032Z,16.27
2019-01-03T16:53:59.332Z,15.50
2019-01-03T16:56:28.237Z,16.57
2019-01-03T16:58:58.304Z,13.37
2019-01-03T17:01:27.254Z,19.93
2019-01-03T17:03:56.343Z,14.50
2019-01-03T17:06:25.542Z,13.03
2019-01-03T17:08:54.635Z,13.90
2019-01-03T17:11:23.433Z,11.60
2019-01-03T17:13:52.370Z,10.53
2019-01-03T17:16:21.176Z,13.93
2019-01-03T17:18:51.077Z,18.57
2019-01-03T17:21:20.555Z,12.67
2019-01-03T17:23:50.043Z,13.03
2019-01-03T17:26:19.513Z,10.17
2019-01-03T17:28:48.593Z,14.27
2019-01-03T17:31:18.550Z,14.90
2019-01-03T17:33:48.704Z,14.80
2019-01-03T17:36:17.721Z,14.07
2019-01-03T17:38:46.809Z,11.33
2019-01-03T17:41:15.936Z,13.67
2019-01-03T17:43:45.482Z,11.07
2019-01-03T17:46:14.298Z,15.70
2019-01-03T17:48:43.382Z,14.47
2019-01-03T17:51:12.824Z,13.40
2019-01-03T17:53:42.823Z,16.40
2019-01-03T17:56:13.215Z,15.40
2019-01-03T17:58:43.644Z,15.50
2019-01-03T18:01:14.188Z,12.83
2019-01-03T18:03:45.034Z,14.30
2019-01-03T18:06:14.451Z,14.67
2019-01-03T18:08:43.758Z,17.27
2019-01-03T18:11:12.652Z,16.63
2019-01-03T18:13:41.993Z,16.60
2019-01-03T18:16:11.286Z,16.67
2019-01-03T18:18:40.413Z,20.70
2019-01-03T18:21:10.560Z,17.23
2019-01-03T18:23:40.376Z,15.70
2019-01-03T18:26:09.416Z,12.70
2019-01-03T18:28:38.450Z,14.30
2019-01-03T18:31:08.046Z,12.17
2019-01-03T18:33:37.634Z,11.83
2019-01-03T18:36:07.007Z,12.77
2019-01-03T18:38:35.789Z,11.90
2019-01-03T18:41:05.283Z,15.03
2019-01-03T18:43:34.337Z,13.30
2019-01-03T18:46:04.118Z,14.23
2019-01-03T18:48:33.981Z,10.50
2019-01-03T18:51:03.990Z,15.17
2019-01-03T18:53:33.178Z,11.57
2019-01-03T18:56:02.705Z,12.10
2019-01-03T18:58:31.783Z,16.50
2019-01-03T19:01:01.444Z,14.60
2019-01-03T19:03:30.463Z,21.57
2019-01-03T19:06:00.121Z,17.37
2019-01-03T19:08:29.337Z,14.73
2019-01-03T19:10:59.071Z,12.60
2019-01-03T19:13:28.374Z,11.93
2019-01-03T19:15:57.589Z,17.07
2019-01-03T19:18:26.569Z,14.93
2019-01-03T19:20:56.055Z,13.90
2019-01-03T19:23:25.415Z,14.83
2019-01-03T19:25:54.616Z,13.70
2019-01-03T19:28:23.768Z,15.37
2019-01-03T19:30:52.653Z,12.33
2019-01-03T19:33:21.812Z,13.13
2019-01-03T19:35:51.237Z,16.10
2019-01-03T19:38:20.521Z,13.37
2019-01-03T19:40:49.768Z,16.43
2019-01-03T19:43:18.988Z,11.73
2019-01-03T19:45:47.932Z,14.80
2019-01-03T19:48:16.729Z,13.00
2019-01-03T19:50:46.014Z,16.80
2019-01-03T19:53:15.292Z,15.63
2019-01-03T19:55:44.519Z,16.97
2019-01-03T19:58:13.621Z,15.03
2019-01-03T20:00:42.542Z,14.83
2019-01-03T20:03:12.106Z,13.67
2019-01-03T20:05:41.408Z,12.80
2019-01-03T20:08:10.514Z,17.43
2019-01-03T20:10:39.538Z,12.53
2019-01-03T20:13:09.857Z,18.23
2019-01-03T20:15:38.462Z,14.53
2019-01-03T20:18:07.253Z,16.73
2019-01-03T20:20:36.370Z,12.33
2019-01-03T20:23:05.748Z,13.70
2019-01-03T20:25:34.679Z,16.50
2019-01-03T20:28:04.010Z,18.37
2019-01-03T20:30:33.326Z,16.87
2019-01-03T20:33:02.246Z,14.57
2019-01-03T20:35:31.539Z,13.40
2019-01-03T20:38:00.812Z,15.03
2019-01-03T20:40:29.866Z,14.33
2019-01-03T20:42:58.673Z,20.73
2019-01-03T20:45:28.435Z,13.77
2019-01-03T20:47:57.240Z,12.37
2019-01-03T20:50:26.612Z,14.13
2019-01-03T20:52:55.715Z,16.63
2019-01-03T20:55:24.812Z,15.47
2019-01-03T20:57:54.405Z,15.00
2019-01-03T21:00:23.164Z,14.33
2019-01-03T21:02:52.346Z,17.53
2019-01-03T21:05:21.682Z,17.60
2019-01-03T21:07:50.573Z,20.00
2019-01-03T21:10:19.520Z,20.47
2019-01-03T21:12:48.627Z,17.53
2019-01-03T21:15:17.919Z,19.23
2019-01-03T21:17:47.082Z,18.13
2019-01-03T21:20:17.204Z,17.70
2019-01-03T21:22:47.492Z,16.93
2019-01-03T21:25:18.124Z,15.53
2019-01-03T21:27:48.063Z,13.40
2019-01-03T21:30:18.507Z,14.87
2019-01-03T21:32:47.877Z,17.70
2019-01-03T21:35:17.347Z,20.43
2019-01-03T21:37:46.865Z,19.73
2019-01-03T21:40:16.500Z,17.40
2019-01-03T21:42:46.843Z,15.00
2019-01-03T21:45:16.296Z,13.50
2019-01-03T21:47:45.674Z,22.33
2019-01-03T21:50:14.674Z,14.03
2019-01-03T21:52:44.163Z,14.67
2019-01-03T21:55:13.731Z,15.00
2019-01-03T21:57:43.292Z,18.83
2019-01-03T22:00:12.801Z,13.57
2019-01-03T22:02:42.101Z,15.80
2019-01-03T22:05:11.165Z,17.20
2019-01-03T22:07:39.976Z,18.10
2019-01-03T22:10:10.101Z,16.93
2019-01-03T22:12:40.100Z,16.13
2019-01-03T22:15:09.720Z,15.50
2019-01-03T22:17:38.427Z,17.43
2019-01-03T22:20:08.748Z,17.43
2019-01-03T22:22:37.693Z,16.60
2019-01-03T22:25:07.839Z,17.93
2019-01-03T22:27:37.336Z,15.77
2019-01-03T22:30:08.774Z,18.13
2019-01-03T22:32:38.048Z,15.33
2019-01-03T22:35:08.081Z,18.13
2019-01-03T22:37:37.177Z,15.70
2019-01-03T22:40:08.529Z,16.77
2019-01-03T22:42:37.736Z,17.43
2019-01-03T22:45:08.014Z,17.77
2019-01-03T22:47:37.082Z,22.77
2019-01-03T22:50:09.467Z,20.00
2019-01-03T22:52:38.419Z,23.83
2019-01-03T22:55:08.262Z,18.77
2019-01-03T22:57:37.730Z,18.80
2019-01-03T23:00:36.079Z,17.47
2019-01-03T23:03:06.698Z,19.97
2019-01-03T23:05:35.537Z,18.70
2019-01-03T23:08:05.085Z,17.70
2019-01-03T23:10:34.777Z,17.07
2019-01-03T23:13:03.925Z,17.30
2019-01-03T23:15:33.206Z,16.90
2019-01-03T23:18:02.367Z,26.90
2019-01-03T23:20:31.873Z,13.53
2019-01-03T23:23:01.174Z,18.00
2019-01-03T23:25:30.294Z,14.47
2019-01-03T23:27:59.723Z,23.07
2019-01-03T23:30:28.683Z,18.37
2019-01-03T23:32:57.840Z,18.27
2019-01-03T23:35:26.981Z,16.53
2019-01-03T23:37:56.389Z,19.87
2019-01-03T23:40:25.282Z,15.80
2019-01-03T23:42:54.470Z,22.23
2019-01-03T23:45:24.111Z,17.93
2019-01-03T23:47:53.357Z,17.80
2019-01-03T23:50:28.701Z,19.10
2019-01-03T23:52:58.276Z,23.13
2019-01-03T23:55:28.135Z,17.50
2019-01-03T23:57:57.239Z,16.87
